This is the latest recevied weather packets stored in our database for station/object IZ5MMH-14. If no packets are shown the sender has not sent any weather packets the latest 10 day(s).
| Time | Temp. | Humidity | Pressure | Rain* | Wind** | Luminosity | Snow |
|---|---|---|---|---|---|---|---|
| 1777837810 | 18.33° C | 86% | 1019 hPa | - | - | - | - |
| 1777837210 | 18.33° C | 81% | 1018.9 hPa | - | - | - | - |
| 1777834213 | 18.89° C | 67% | 1018.7 hPa | - | - | - | - |
| 1777832410 | 21.11° C | 64% | 1018.5 hPa | - | - | - | - |
| 1777828212 | 23.89° C | 59% | 1018.2 hPa | - | - | - | - |
| 1777827010 | 23.89° C | 57% | 1018.2 hPa | - | - | - | - |
| 1777826410 | 23.89° C | 56% | 1018.1 hPa | - | - | - | - |
| 1777821610 | 25° C | 44% | 1018.3 hPa | - | - | - | - |
| 1777803010 | 23.89° C | 57% | 1020.8 hPa | - | - | - | - |
| 1777801209 | 23.89° C | 54% | 1021 hPa | - | - | - | - |
| 1777800609 | 22.78° C | 58% | 1020.9 hPa | - | - | - | - |
| 1777800009 | 23.33° C | 58% | 1020.9 hPa | - | - | - | - |
| 1777799409 | 22.78° C | 66% | 1020.9 hPa | - | - | - | - |
| 1777798809 | 22.22° C | 66% | 1020.8 hPa | - | - | - | - |
| 1777798209 | 22.22° C | 70% | 1020.9 hPa | - | - | - | - |
| 1777797609 | 22.78° C | 68% | 1020.8 hPa | - | - | - | - |
| 1777797009 | 21.67° C | 74% | 1020.7 hPa | - | - | - | - |
| 1777796409 | 22.22° C | 71% | 1020.6 hPa | - | - | - | - |
| 1777795809 | 21.67° C | 75% | 1020.5 hPa | - | - | - | - |
| 1777795209 | 22.22° C | 74% | 1020.5 hPa | - | - | - | - |
| 1777794609 | 21.67° C | 77% | 1020.4 hPa | - | - | - | - |
| 1777794009 | 20.56° C | 82% | 1020.5 hPa | - | - | - | - |
| 1777793409 | 21.67° C | 79% | 1020.6 hPa | - | - | - | - |
| 1777792809 | 21.11° C | 83% | 1020.6 hPa | - | - | - | - |
| 1777792212 | 20° C | 87% | 1020.8 hPa | - | - | - | - |
* Rain since midnight (hover to see other rain measurements)
** Current wind speed in m/s (hover to see current wind gust speed)